KPSM

UTC

Portsmouth International at Pease Airport

Portsmouth, New Hampshire, United States

TAF Report

KPSM 011127Z 0112/0212 33003KT 4SM BR SCT010 FM011300 36005KT P6SM SCT250

Issued

Oct 01 11:27 UTC

Valid From

Oct 01 12:00 UTC

Valid To

Oct 02 12:00 UTC

TAF Sections

  1. Oct 01 12:00 UTC - Oct 01 13:00 UTC

    TAF KPSM 011127Z 0112/0212 33003KT 4SM BR SCT010

    Wind

    330° at 3 KTS

    Visibility

    4 SM

    Conditions

    • Mist

    Clouds

    • Scattered at 1,000 ft AGL
  2. Oct 01 13:00 UTC - Oct 02 12:00 UTC

    FM011300 36005KT P6SM SCT250

    Wind

    360° at 5 KTS

    Visibility

    Greater than 6 SM

    Clouds

    • Scattered at 25,000 ft AGL